createdAt,value
2019-05-12T00:00:18.692Z,7.1
2019-05-12T00:01:19.097Z,7.3
2019-05-12T01:37:04.607Z,7.1
2019-05-12T02:49:54.821Z,7.1
2019-05-12T02:58:06.277Z,7.1
2019-05-12T03:00:16.855Z,6.9
2019-05-12T03:05:40.587Z,7.1
2019-05-12T03:21:16.607Z,7.1
2019-05-12T03:27:40.595Z,7.1
2019-05-12T03:29:40.560Z,7.1
2019-05-12T03:57:16.671Z,7.5
2019-05-12T04:02:05.199Z,7.5
2019-05-12T04:23:16.622Z,7.7
2019-05-12T04:24:06.300Z,7.8
2019-05-12T04:31:05.856Z,7.8
2019-05-12T04:32:55.651Z,8
2019-05-12T04:53:28.515Z,8.3
2019-05-12T04:54:55.624Z,8.3
2019-05-12T04:56:40.495Z,8.4
2019-05-12T04:58:05.105Z,8.4
2019-05-12T04:59:16.673Z,8.4
2019-05-12T04:59:54.714Z,8.4
2019-05-12T05:00:40.511Z,8.5
2019-05-12T05:01:16.488Z,8.4
2019-05-12T05:01:54.396Z,8.4
2019-05-12T05:02:54.777Z,8.5
2019-05-12T05:03:28.600Z,8.5
2019-05-12T05:04:28.487Z,8.5
2019-05-12T05:05:05.799Z,8.5
2019-05-12T05:06:28.516Z,8.5
2019-05-12T05:07:16.635Z,8.5
2019-05-12T05:08:05.305Z,8.7
2019-05-12T05:08:40.547Z,8.7
2019-05-12T05:09:28.500Z,8.6
2019-05-12T05:10:55.066Z,8.6
2019-05-12T05:12:05.036Z,8.6
2019-05-12T05:12:40.482Z,8.7
2019-05-12T05:13:55.229Z,8.7
2019-05-12T05:14:55.180Z,8.8
2019-05-12T05:15:55.228Z,8.8
2019-05-12T05:16:28.463Z,8.8
2019-05-12T05:17:28.478Z,8.8
2019-05-12T05:18:07.113Z,8.9
2019-05-12T05:18:43.366Z,8.8
2019-05-12T05:19:16.500Z,8.9
2019-05-12T05:20:54.498Z,8.9
2019-05-12T05:21:40.538Z,9
2019-05-12T05:22:28.508Z,8.9
2019-05-12T05:24:16.663Z,8.9
2019-05-12T05:24:53.920Z,9
2019-05-12T05:25:28.462Z,9.1
2019-05-12T05:26:28.704Z,9.1
2019-05-12T05:27:04.803Z,9.1
2019-05-12T05:28:28.437Z,9
2019-05-12T05:29:16.450Z,9.1
2019-05-12T05:30:28.495Z,9.1
2019-05-12T05:31:04.449Z,9.2
2019-05-12T05:31:40.452Z,9.1
2019-05-12T05:32:16.521Z,9.2
2019-05-12T05:32:53.874Z,9.1
2019-05-12T05:33:40.485Z,9.1
2019-05-12T05:35:34.125Z,9.2
2019-05-12T05:36:08.760Z,9.2
2019-05-12T05:37:01.457Z,9.2
2019-05-12T05:37:35.833Z,9.2
2019-05-12T05:38:28.476Z,9.3
2019-05-12T05:39:16.524Z,9.2
2019-05-12T05:39:54.271Z,9.2
2019-05-12T05:40:30.623Z,9.2
2019-05-12T05:41:10.522Z,9.2
2019-05-12T05:41:54.134Z,9.2
2019-05-12T05:42:40.493Z,9.3
2019-05-12T05:43:40.549Z,9.2
2019-05-12T05:44:40.440Z,9.2
2019-05-12T05:45:26.264Z,9.2
2019-05-12T05:46:16.460Z,9.2
2019-05-12T05:47:40.538Z,9.2
2019-05-12T05:49:28.434Z,9.3
2019-05-12T05:50:24.697Z,9.4
2019-05-12T05:51:16.723Z,9.4
2019-05-12T05:51:57.671Z,9.4
2019-05-12T05:52:40.440Z,9.4
2019-05-12T05:53:28.448Z,9.3
2019-05-12T05:54:53.504Z,9.4
2019-05-12T05:55:40.532Z,9.4
2019-05-12T05:56:18.641Z,9.5
2019-05-12T05:57:06.640Z,9.5
2019-05-12T05:57:53.827Z,9.7
2019-05-12T05:58:28.456Z,9.6
2019-05-12T05:59:35.980Z,9.7
2019-05-12T06:00:20.296Z,9.6
2019-05-12T06:01:55.191Z,9.7
2019-05-12T06:02:54.807Z,9.8
2019-05-12T06:03:28.502Z,9.8
2019-05-12T06:04:08.933Z,9.8
2019-05-12T06:04:49.849Z,9.8
2019-05-12T06:05:31.233Z,9.9
2019-05-12T06:06:50.944Z,9.8
2019-05-12T06:07:39.034Z,9.9
2019-05-12T06:08:40.422Z,9.9
2019-05-12T06:09:28.411Z,9.8
2019-05-12T06:10:43.284Z,10
2019-05-12T06:11:28.297Z,10
2019-05-12T06:13:40.619Z,10.2
2019-05-12T06:14:28.437Z,10.3
2019-05-12T06:15:16.446Z,10.4
2019-05-12T06:16:28.492Z,10.4
2019-05-12T06:17:04.720Z,10.5
2019-05-12T06:18:54.666Z,10.5
2019-05-12T06:20:04.868Z,10.5
2019-05-12T06:21:40.418Z,10.5
2019-05-12T06:22:40.457Z,10.4
2019-05-12T06:23:16.418Z,10.5
2019-05-12T06:24:58.847Z,10.7
2019-05-12T06:25:51.666Z,10.6
2019-05-12T06:26:28.051Z,10.7
2019-05-12T06:27:20.432Z,10.7
2019-05-12T06:27:40.474Z,10.9
2019-05-12T06:28:43.783Z,10.9
2019-05-12T06:29:28.509Z,10.8
2019-05-12T06:30:16.634Z,10.9
2019-05-12T06:30:56.626Z,10.9
2019-05-12T06:31:54.541Z,10.9
2019-05-12T06:33:04.608Z,11
2019-05-12T06:33:53.916Z,11
2019-05-12T06:34:40.478Z,11.1
2019-05-12T06:35:16.407Z,11.1
2019-05-12T06:36:27.036Z,11.1
2019-05-12T06:37:02.113Z,11.1
2019-05-12T06:37:28.487Z,11.2
2019-05-12T06:38:05.538Z,11.2
2019-05-12T06:38:40.909Z,11.2
2019-05-12T06:39:21.001Z,11.2
2019-05-12T06:40:00.544Z,11.3
2019-05-12T06:40:39.792Z,11.3
2019-05-12T06:41:23.705Z,11.3
2019-05-12T06:42:02.192Z,11.3
2019-05-12T06:42:40.437Z,11.4
2019-05-12T06:43:16.403Z,11.4
2019-05-12T06:44:19.850Z,11.4
2019-05-12T06:44:58.235Z,11.4
2019-05-12T06:45:54.668Z,11.4
2019-05-12T06:46:40.428Z,11.4
2019-05-12T06:47:16.387Z,11.5
2019-05-12T06:47:56.222Z,11.5
2019-05-12T06:48:30.540Z,11.6
2019-05-12T06:49:16.573Z,11.6
2019-05-12T06:49:40.503Z,11.5
2019-05-12T06:50:16.742Z,11.6
2019-05-12T06:50:53.797Z,11.6
2019-05-12T06:51:28.415Z,11.6
2019-05-12T06:52:07.453Z,11.7
2019-05-12T06:53:05.581Z,11.6
2019-05-12T06:53:40.402Z,11.7
2019-05-12T06:54:28.388Z,11.7
2019-05-12T06:55:04.534Z,11.6
2019-05-12T06:55:40.462Z,11.7
2019-05-12T06:56:20.163Z,11.6
2019-05-12T06:57:10.433Z,11.6
2019-05-12T06:57:49.961Z,11.6
2019-05-12T06:58:31.362Z,11.6
2019-05-12T06:58:53.828Z,11.5
2019-05-12T06:59:55.195Z,11.5
2019-05-12T07:00:40.505Z,11.4
2019-05-12T07:01:19.887Z,11.3
2019-05-12T07:02:00.544Z,11.4
2019-05-12T07:02:36.073Z,11.3
2019-05-12T07:04:09.973Z,11.2
2019-05-12T07:04:59.563Z,11.2
2019-05-12T07:05:38.184Z,11.2
2019-05-12T07:06:09.052Z,11.2
2019-05-12T07:06:40.396Z,11.2
2019-05-12T07:07:16.485Z,11.1
2019-05-12T07:08:04.739Z,11.2
2019-05-12T07:09:16.113Z,11.3
2019-05-12T07:09:57.099Z,11.4
2019-05-12T07:10:43.285Z,11.3
2019-05-12T07:11:05.873Z,11.4
2019-05-12T07:11:45.599Z,11.4
2019-05-12T07:13:02.443Z,11.5
2019-05-12T07:13:29.309Z,11.4
2019-05-12T07:14:07.734Z,11.4
2019-05-12T07:15:04.559Z,11.4
2019-05-12T07:16:29.704Z,11.5
2019-05-12T07:17:01.460Z,11.4
2019-05-12T07:17:28.442Z,11.4
2019-05-12T07:18:04.687Z,11.4
2019-05-12T07:18:40.405Z,11.4
2019-05-12T07:19:25.346Z,11.4
2019-05-12T07:19:58.263Z,11.4
2019-05-12T07:20:35.193Z,11.4
2019-05-12T07:21:23.980Z,11.4
2019-05-12T07:22:22.469Z,11.4
2019-05-12T07:22:48.268Z,11.4
2019-05-12T07:23:24.981Z,11.4
2019-05-12T07:23:53.814Z,11.3
2019-05-12T07:24:28.426Z,11.3
2019-05-12T07:25:08.388Z,11.4
2019-05-12T07:25:40.460Z,11.3
2019-05-12T07:26:19.898Z,11.3
2019-05-12T07:27:09.508Z,11.3
2019-05-12T07:28:16.625Z,11.3
2019-05-12T07:29:54.470Z,11.4
2019-05-12T07:30:34.947Z,11.4
2019-05-12T07:31:04.437Z,11.4
2019-05-12T07:31:40.391Z,11.5
2019-05-12T07:32:24.518Z,11.4
2019-05-12T07:33:01.307Z,11.4
2019-05-12T07:33:41.641Z,11.5
2019-05-12T07:34:28.464Z,11.7
2019-05-12T07:35:04.427Z,11.5
2019-05-12T07:35:40.403Z,11.7
2019-05-12T07:36:16.375Z,11.6
2019-05-12T07:36:54.144Z,11.7
2019-05-12T07:37:54.263Z,11.8
2019-05-12T07:38:40.503Z,11.9
2019-05-12T07:39:16.467Z,11.8
2019-05-12T07:40:05.158Z,11.9
2019-05-12T07:41:52.062Z,12.1
2019-05-12T07:42:40.485Z,12
2019-05-12T07:43:28.492Z,12.1
2019-05-12T07:44:04.441Z,12.1
2019-05-12T07:44:43.650Z,12
2019-05-12T07:45:22.825Z,12
2019-05-12T07:46:02.154Z,11.9
2019-05-12T07:46:49.307Z,11.9
2019-05-12T07:47:59.258Z,12
2019-05-12T07:50:40.467Z,12.1
2019-05-12T07:51:54.528Z,12.1
2019-05-12T07:52:40.405Z,12.1
2019-05-12T07:53:16.379Z,12.2
2019-05-12T07:56:35.729Z,12.4
2019-05-12T07:57:17.260Z,12.4
2019-05-12T07:58:18.396Z,12.4
2019-05-12T08:03:28.464Z,12.4
2019-05-12T08:07:25.075Z,12.3
2019-05-12T08:09:04.478Z,12.3
2019-05-12T08:11:04.862Z,12.6
2019-05-12T08:11:40.364Z,12.6
2019-05-12T08:12:40.387Z,12.7
2019-05-12T08:13:54.602Z,12.7
2019-05-12T08:15:56.564Z,13
2019-05-12T08:16:34.636Z,13
2019-05-12T08:19:04.497Z,13.4
2019-05-12T08:20:16.421Z,13.6
2019-05-12T08:28:25.552Z,16
2019-05-12T08:36:16.831Z,16
2019-05-12T08:40:51.040Z,16.3
2019-05-12T08:41:40.377Z,16.2
2019-05-12T08:42:28.371Z,16.1
2019-05-12T08:43:46.803Z,16
2019-05-12T08:45:40.375Z,15.5
2019-05-12T08:46:52.119Z,15.4
2019-05-12T08:48:28.445Z,15.3
2019-05-12T08:49:05.758Z,15.3
2019-05-12T08:51:20.345Z,15.5
2019-05-12T08:53:05.155Z,15.7
2019-05-12T08:54:49.196Z,16.1
2019-05-12T08:56:18.752Z,16.2
2019-05-12T08:59:09.468Z,16.6
2019-05-12T09:04:51.580Z,16.7
2019-05-12T09:09:28.317Z,17.2
2019-05-12T09:11:54.640Z,17.6
2019-05-12T09:12:54.435Z,17.4
2019-05-12T09:14:02.684Z,17.4
2019-05-12T09:14:46.092Z,17.3
2019-05-12T09:15:28.358Z,17.2
2019-05-12T09:16:04.687Z,17.3
2019-05-12T09:17:07.601Z,17.3
2019-05-12T09:17:54.361Z,17.5
2019-05-12T09:18:52.381Z,17.4
2019-05-12T09:20:06.660Z,17.5
2019-05-12T09:20:52.572Z,17.4
2019-05-12T09:21:16.389Z,17.4
2019-05-12T09:21:54.470Z,17.4
2019-05-12T09:22:28.328Z,17.4
2019-05-12T09:23:43.382Z,17.5
2019-05-12T09:26:04.490Z,17.7
2019-05-12T09:26:40.357Z,17.7
2019-05-12T09:27:28.363Z,17.6
2019-05-12T09:29:40.315Z,17.8
2019-05-12T09:30:16.512Z,17.8
2019-05-12T09:31:04.288Z,18
2019-05-12T09:31:40.364Z,18
2019-05-12T09:32:16.377Z,18.1
2019-05-12T09:34:58.339Z,18.1
2019-05-12T09:36:04.679Z,18.2
2019-05-12T09:40:40.400Z,18.1
2019-05-12T09:42:30.342Z,17.8
2019-05-12T09:43:53.791Z,17.5
2019-05-12T09:44:30.826Z,17.5
2019-05-12T09:46:04.603Z,17.5
2019-05-12T09:48:09.528Z,17.2
2019-05-12T09:49:04.526Z,17.2
2019-05-12T09:49:40.296Z,17.3
2019-05-12T09:53:11.530Z,17.4
2019-05-12T09:53:55.680Z,17.5
2019-05-12T09:54:53.789Z,17.7
2019-05-12T09:56:28.343Z,17.8
2019-05-12T09:57:44.961Z,17.8
2019-05-12T09:59:10.952Z,17.8
2019-05-12T10:01:54.419Z,18.1
2019-05-12T10:03:08.532Z,18.2
2019-05-12T10:03:40.483Z,18.3
2019-05-12T10:04:19.857Z,18.2
2019-05-12T10:05:00.511Z,18.3
2019-05-12T10:05:37.371Z,18.2
2019-05-12T10:06:28.269Z,18.2
2019-05-12T10:07:16.294Z,18.1
2019-05-12T10:08:05.127Z,18.1
2019-05-12T10:08:40.356Z,18.1
2019-05-12T10:09:28.355Z,17.8
2019-05-12T10:10:04.354Z,17.7
2019-05-12T10:10:53.910Z,17.7
2019-05-12T10:11:40.317Z,17.6
2019-05-12T10:12:16.327Z,17.7
2019-05-12T10:13:05.114Z,17.7
2019-05-12T10:13:40.272Z,17.7
2019-05-12T10:14:16.365Z,17.8
2019-05-12T10:15:04.705Z,17.9
2019-05-12T10:15:40.314Z,17.8
2019-05-12T10:16:16.300Z,17.9
2019-05-12T10:16:52.289Z,17.8
2019-05-12T10:17:30.551Z,17.8
2019-05-12T10:18:11.492Z,17.9
2019-05-12T10:18:51.603Z,17.9
2019-05-12T10:19:16.275Z,18
2019-05-12T10:20:04.270Z,18.2
2019-05-12T10:21:04.275Z,18.6
2019-05-12T10:22:04.307Z,18.7
2019-05-12T10:22:54.475Z,18.8
2019-05-12T10:23:40.313Z,19.1
2019-05-12T10:24:41.695Z,19.2
2019-05-12T10:25:04.385Z,19.2
2019-05-12T10:25:40.239Z,19.2
2019-05-12T10:26:16.858Z,19.2
2019-05-12T10:26:54.490Z,19.2
2019-05-12T10:27:34.507Z,19.1
2019-05-12T10:28:16.811Z,19.1
2019-05-12T10:28:58.533Z,19.1
2019-05-12T10:29:32.408Z,19
2019-05-12T10:30:16.788Z,19.1
2019-05-12T10:30:40.264Z,19.2
2019-05-12T10:31:38.765Z,19.2
2019-05-12T10:32:16.290Z,19.6
2019-05-12T10:32:52.251Z,19.6
2019-05-12T10:33:28.358Z,19.7
2019-05-12T10:34:04.303Z,19.8
2019-05-12T10:34:40.738Z,19.9
2019-05-12T10:35:23.617Z,20
2019-05-12T10:36:08.467Z,20
2019-05-12T10:36:48.928Z,20
2019-05-12T10:37:29.739Z,20.1
2019-05-12T10:38:10.587Z,20.1
2019-05-12T10:38:40.268Z,20
2019-05-12T10:39:16.348Z,20.1
2019-05-12T10:39:54.365Z,19.7
2019-05-12T10:40:52.356Z,19.9
2019-05-12T10:41:28.333Z,19.9
2019-05-12T10:42:04.312Z,19.8
2019-05-12T10:42:53.867Z,19.8
2019-05-12T10:43:40.300Z,19.8
2019-05-12T10:44:16.280Z,19.8
2019-05-12T10:45:04.634Z,19.8
2019-05-12T10:45:40.334Z,19.7
2019-05-12T10:46:24.315Z,19.6
2019-05-12T10:46:54.125Z,19.7
2019-05-12T10:47:28.252Z,19.3
2019-05-12T10:48:04.342Z,19.4
2019-05-12T10:48:40.317Z,19.3
2019-05-12T10:49:16.280Z,19.2
2019-05-12T10:49:54.145Z,19.1
2019-05-12T10:50:28.362Z,18.8
2019-05-12T10:51:04.302Z,18.9
2019-05-12T10:51:40.282Z,18.7
2019-05-12T10:52:16.256Z,18.7
2019-05-12T10:52:53.957Z,18.7
2019-05-12T10:53:28.341Z,18.7
2019-05-12T10:54:15.438Z,18.6
2019-05-12T10:55:04.800Z,18.6
2019-05-12T10:55:54.444Z,18.7
2019-05-12T10:56:28.317Z,18.7
2019-05-12T10:57:05.392Z,18.8
2019-05-12T10:58:40.242Z,19.1
2019-05-12T10:59:33.293Z,19
2019-05-12T10:59:53.657Z,19.1
2019-05-12T11:00:28.271Z,19.2
2019-05-12T11:01:16.275Z,19.5
2019-05-12T11:02:04.267Z,19.6
2019-05-12T11:02:40.253Z,19.7
2019-05-12T11:03:28.234Z,19.6
2019-05-12T11:04:04.332Z,19.8
2019-05-12T11:04:43.908Z,19.9
2019-05-12T11:05:28.299Z,19.9
2019-05-12T11:06:08.003Z,19.9
2019-05-12T11:06:48.434Z,20
2019-05-12T11:07:16.311Z,20
2019-05-12T11:07:54.297Z,20
2019-05-12T11:08:28.251Z,20.2
2019-05-12T11:09:04.281Z,20.2
2019-05-12T11:09:40.315Z,20.1
2019-05-12T11:10:28.320Z,20
2019-05-12T11:11:04.534Z,19.9
2019-05-12T11:11:46.863Z,20
2019-05-12T11:12:24.999Z,19.9
2019-05-12T11:12:52.297Z,20
2019-05-12T11:13:28.286Z,20
2019-05-12T11:14:04.342Z,20.1
2019-05-12T11:14:40.267Z,20.1
2019-05-12T11:15:16.302Z,20.2
2019-05-12T11:15:54.356Z,20.2
2019-05-12T11:16:34.448Z,20.3
2019-05-12T11:17:45.889Z,20.4
2019-05-12T11:18:25.865Z,20.4
2019-05-12T11:18:54.460Z,20.3
2019-05-12T11:19:28.315Z,20.2
2019-05-12T11:20:16.200Z,20.3
2019-05-12T11:21:04.240Z,20.3
2019-05-12T11:21:40.319Z,20.2
2019-05-12T11:22:16.273Z,20.3
2019-05-12T11:22:54.504Z,20.2
2019-05-12T11:23:40.233Z,20.1
2019-05-12T11:24:16.201Z,20
2019-05-12T11:24:55.971Z,19.9
2019-05-12T11:25:40.285Z,19.8
2019-05-12T11:26:16.286Z,19.6
2019-05-12T11:26:53.969Z,19.5
2019-05-12T11:27:28.231Z,19.6
2019-05-12T11:28:04.555Z,19.6
2019-05-12T11:28:40.266Z,19.6
2019-05-12T11:29:16.227Z,19.7
2019-05-12T11:29:53.789Z,19.5
2019-05-12T11:30:28.285Z,19.5
2019-05-12T11:31:04.246Z,19.6
2019-05-12T11:31:40.231Z,19.7
2019-05-12T11:32:33.931Z,19.6
2019-05-12T11:33:04.901Z,19.7
2019-05-12T11:34:16.247Z,19.7
2019-05-12T11:34:54.026Z,19.7
2019-05-12T11:35:28.321Z,19.6
2019-05-12T11:36:16.302Z,19.8
2019-05-12T11:36:54.827Z,19.8
2019-05-12T11:37:29.409Z,19.7
2019-05-12T11:38:05.009Z,19.7
2019-05-12T11:38:53.707Z,19.6
2019-05-12T11:40:04.696Z,19.7
2019-05-12T11:40:40.239Z,19.7
2019-05-12T11:42:04.666Z,20
2019-05-12T11:43:04.799Z,20.3
2019-05-12T11:43:40.210Z,20.3
2019-05-12T11:44:28.208Z,20.5
2019-05-12T11:45:40.311Z,20.6
2019-05-12T11:46:28.290Z,20.7
2019-05-12T11:47:04.232Z,20.7
2019-05-12T11:47:40.214Z,20.6
2019-05-12T11:48:16.298Z,20.7
2019-05-12T11:48:54.196Z,20.6
2019-05-12T11:49:28.402Z,20.7
2019-05-12T11:50:16.236Z,20.8
2019-05-12T11:50:54.730Z,20.8
2019-05-12T11:51:30.879Z,20.7
2019-05-12T11:52:19.647Z,20.6
2019-05-12T11:54:28.426Z,20.4
2019-05-12T11:55:34.255Z,20.6
2019-05-12T11:57:26.066Z,20.7
2019-05-12T11:58:16.222Z,20.8
2019-05-12T11:58:54.509Z,20.8
2019-05-12T11:59:28.280Z,20.9
2019-05-12T12:00:28.189Z,20.8
2019-05-12T12:01:28.236Z,20.7
2019-05-12T12:02:04.186Z,20.7
2019-05-12T12:02:40.278Z,20.8
2019-05-12T12:04:04.253Z,20.8
2019-05-12T12:05:16.179Z,20.6
2019-05-12T12:06:16.212Z,20.4
2019-05-12T12:07:04.223Z,20.6
2019-05-12T12:07:52.697Z,20.5
2019-05-12T12:08:37.029Z,20.5
2019-05-12T12:09:28.205Z,20.6
2019-05-12T12:10:04.183Z,20.6
2019-05-12T12:11:04.304Z,20.6
2019-05-12T12:12:28.290Z,20.7
2019-05-12T12:13:04.274Z,20.5
2019-05-12T12:13:40.235Z,20.5
2019-05-12T12:14:16.224Z,20.5
2019-05-12T12:15:52.200Z,20.6
2019-05-12T12:17:16.283Z,20.8
2019-05-12T12:17:53.942Z,20.9
2019-05-12T12:19:06.232Z,21.1
2019-05-12T12:19:54.694Z,21.2
2019-05-12T12:21:05.937Z,21.3
2019-05-12T12:21:28.183Z,21.4
2019-05-12T12:22:26.302Z,21.6
2019-05-12T12:23:11.192Z,21.6
2019-05-12T12:24:04.288Z,21.6
2019-05-12T12:24:40.192Z,21.5
2019-05-12T12:25:48.331Z,21.3
2019-05-12T12:26:25.984Z,21.2
2019-05-12T12:26:54.080Z,21.1
2019-05-12T12:27:28.280Z,21
2019-05-12T12:28:04.906Z,20.9
2019-05-12T12:28:40.178Z,20.9
2019-05-12T12:29:16.169Z,20.8
2019-05-12T12:29:54.608Z,20.9
2019-05-12T12:30:40.235Z,21
2019-05-12T12:31:34.635Z,21.1
2019-05-12T12:32:04.204Z,21.2
2019-05-12T12:32:40.191Z,21
2019-05-12T12:33:16.269Z,21
2019-05-12T12:33:53.953Z,21.1
2019-05-12T12:34:54.607Z,21.1
2019-05-12T12:35:28.236Z,21.1
2019-05-12T12:36:04.470Z,21.1
2019-05-12T12:36:40.174Z,21.2
2019-05-12T12:37:28.171Z,21.1
2019-05-12T12:38:40.268Z,20.9
2019-05-12T12:39:40.292Z,20.9
2019-05-12T12:40:16.228Z,20.9
2019-05-12T12:41:55.984Z,21.1
2019-05-12T12:42:16.169Z,21.2
2019-05-12T12:42:54.127Z,21.2
2019-05-12T12:43:40.259Z,21.3
2019-05-12T12:44:40.166Z,21.3
2019-05-12T12:45:52.248Z,21.3
2019-05-12T12:47:04.158Z,21.2
2019-05-12T12:47:49.128Z,21.2
2019-05-12T12:48:24.700Z,21.2
2019-05-12T12:49:48.953Z,21.1
2019-05-12T12:50:25.463Z,21
2019-05-12T12:51:04.393Z,20.8
2019-05-12T12:51:40.237Z,20.8
2019-05-12T12:52:16.210Z,20.9
2019-05-12T12:52:53.715Z,20.9
2019-05-12T12:53:28.175Z,21
2019-05-12T12:54:04.267Z,21
2019-05-12T12:54:40.216Z,21
2019-05-12T12:55:16.189Z,21
2019-05-12T12:55:54.114Z,20.9
2019-05-12T12:56:30.419Z,20.8
2019-05-12T12:57:19.374Z,20.6
2019-05-12T12:57:52.226Z,20.6
2019-05-12T12:58:34.367Z,20.5
2019-05-12T12:59:12.571Z,20.5
2019-05-12T12:59:51.161Z,20.4
2019-05-12T13:00:34.182Z,20.6
2019-05-12T13:01:52.253Z,20.7
2019-05-12T13:03:04.149Z,20.9
2019-05-12T13:03:53.998Z,20.8
2019-05-12T13:05:40.167Z,20.6
2019-05-12T13:06:17.742Z,20.7
2019-05-12T13:06:54.571Z,20.8
2019-05-12T13:07:28.193Z,20.9
2019-05-12T13:08:16.202Z,20.8
2019-05-12T13:10:07.504Z,21
2019-05-12T13:10:28.170Z,21.1
2019-05-12T13:11:04.720Z,21
2019-05-12T13:11:40.229Z,21
2019-05-12T13:12:19.992Z,21.1
2019-05-12T13:13:04.768Z,21.1
2019-05-12T13:13:40.171Z,21.1
2019-05-12T13:14:16.146Z,21.2
2019-05-12T13:14:53.549Z,21.2
2019-05-12T13:15:40.214Z,21.3
2019-05-12T13:16:16.196Z,21.3
2019-05-12T13:16:56.355Z,21.3
2019-05-12T13:17:41.874Z,21.1
2019-05-12T13:18:04.208Z,21.1
2019-05-12T13:18:40.195Z,21.1
2019-05-12T13:19:17.500Z,21
2019-05-12T13:19:58.741Z,20.9
2019-05-12T13:20:40.119Z,20.7
2019-05-12T13:21:28.117Z,20.8
2019-05-12T13:22:14.164Z,20.6
2019-05-12T13:23:04.512Z,20.6
2019-05-12T13:23:41.438Z,20.6
2019-05-12T13:24:16.222Z,20.3
2019-05-12T13:24:58.028Z,20.4
2019-05-12T13:25:51.785Z,20.4
2019-05-12T13:27:04.234Z,20.5
2019-05-12T13:27:40.202Z,20.6
2019-05-12T13:28:28.192Z,20.7
2019-05-12T13:29:16.240Z,20.8
2019-05-12T13:29:54.041Z,20.8
2019-05-12T13:30:49.635Z,21
2019-05-12T13:31:28.231Z,21.1
2019-05-12T13:32:04.150Z,21.1
2019-05-12T13:32:40.273Z,21.2
2019-05-12T13:33:40.138Z,21.4
2019-05-12T13:34:16.227Z,21.5
2019-05-12T13:34:52.340Z,21.6
2019-05-12T13:35:57.455Z,21.6
2019-05-12T13:36:35.265Z,21.5
2019-05-12T13:37:04.156Z,21.5
2019-05-12T13:37:40.143Z,21.4
2019-05-12T13:38:16.224Z,21.3
2019-05-12T13:38:52.195Z,21.3
2019-05-12T13:39:28.165Z,21.3
2019-05-12T13:40:16.168Z,21.3
2019-05-12T13:40:54.399Z,21.2
2019-05-12T13:41:28.243Z,21.2
2019-05-12T13:42:40.168Z,21.2
2019-05-12T13:44:00.057Z,21
2019-05-12T13:45:04.161Z,21.2
2019-05-12T13:46:04.175Z,21.2
2019-05-12T13:47:04.208Z,21.3
2019-05-12T13:47:40.479Z,21.4
2019-05-12T13:48:20.281Z,21.5
2019-05-12T13:48:59.838Z,21.5
2019-05-12T13:50:40.189Z,21.5
2019-05-12T13:51:28.138Z,21.4
2019-05-12T13:52:04.579Z,21.4
2019-05-12T13:52:40.208Z,21.3
2019-05-12T13:54:04.227Z,21.3
2019-05-12T13:54:40.139Z,21.3
2019-05-12T13:55:16.158Z,21.3
2019-05-12T13:55:54.556Z,21.4
2019-05-12T13:56:40.203Z,21.4
2019-05-12T13:57:16.167Z,21.5
2019-05-12T13:58:04.533Z,21.5
2019-05-12T13:58:54.364Z,21.4
2019-05-12T13:59:28.155Z,21.3
2019-05-12T14:00:11.200Z,21.2
2019-05-12T14:01:19.216Z,21.1
2019-05-12T14:01:39.986Z,21
2019-05-12T14:02:04.162Z,20.5
2019-05-12T14:03:09.955Z,20.5
2019-05-12T14:03:50.479Z,20.4
2019-05-12T14:04:29.653Z,20.4
2019-05-12T14:05:11.397Z,20.3
2019-05-12T14:06:04.177Z,20.4
2019-05-12T14:07:28.125Z,20.5
2019-05-12T14:08:04.325Z,20.5
2019-05-12T14:08:40.187Z,20.5
2019-05-12T14:09:16.183Z,20.7
2019-05-12T14:10:16.197Z,20.6
2019-05-12T14:11:19.116Z,20.7
2019-05-12T14:12:16.126Z,20.8
2019-05-12T14:13:04.122Z,20.9
2019-05-12T14:14:16.198Z,21
2019-05-12T14:14:52.157Z,20.9
2019-05-12T14:15:40.175Z,20.9
2019-05-12T14:16:16.142Z,20.9
2019-05-12T14:16:59.526Z,20.7
2019-05-12T14:17:37.004Z,20.7
2019-05-12T14:18:04.160Z,20.6
2019-05-12T14:19:00.463Z,20.5
2019-05-12T14:19:35.494Z,20.4
2019-05-12T14:20:09.123Z,20.4
2019-05-12T14:20:40.172Z,20.4
2019-05-12T14:21:16.218Z,20.5
2019-05-12T14:21:54.517Z,20.4
2019-05-12T14:22:28.199Z,20.4
2019-05-12T14:23:28.109Z,20.6
2019-05-12T14:24:04.190Z,20.6
2019-05-12T14:24:46.539Z,20.7
2019-05-12T14:25:54.567Z,21
2019-05-12T14:26:28.210Z,21
2019-05-12T14:27:04.439Z,21
2019-05-12T14:27:40.137Z,21
2019-05-12T14:28:49.646Z,21
2019-05-12T14:29:26.430Z,21
2019-05-12T14:29:54.046Z,20.9
2019-05-12T14:30:28.213Z,20.8
2019-05-12T14:31:04.154Z,20.7
2019-05-12T14:31:52.767Z,20.6
2019-05-12T14:32:19.152Z,20.5
2019-05-12T14:32:59.195Z,20.6
2019-05-12T14:33:34.890Z,20.4
2019-05-12T14:34:04.674Z,20.4
2019-05-12T14:34:40.092Z,20.3
2019-05-12T14:35:16.183Z,20.5
2019-05-12T14:36:04.493Z,20.3
2019-05-12T14:36:40.230Z,20.4
2019-05-12T14:37:28.142Z,20.5
2019-05-12T14:38:25.264Z,20.5
2019-05-12T14:38:53.862Z,20.5
2019-05-12T14:39:53.974Z,20.5
2019-05-12T14:40:40.158Z,20.5
2019-05-12T14:41:16.126Z,20.6
2019-05-12T14:41:54.611Z,20.6
2019-05-12T14:42:39.833Z,20.9
2019-05-12T14:43:04.191Z,20.9
2019-05-12T14:43:40.123Z,21
2019-05-12T14:44:16.083Z,21.1
2019-05-12T14:44:54.283Z,21.2
2019-05-12T14:45:30.077Z,21.3
2019-05-12T14:46:10.415Z,21.4
2019-05-12T14:46:49.198Z,21.5
2019-05-12T14:47:24.606Z,21.4
2019-05-12T14:47:54.312Z,21.5
2019-05-12T14:48:28.110Z,21.4
2019-05-12T14:49:04.077Z,21.1
2019-05-12T14:49:40.160Z,21.2
2019-05-12T14:50:28.181Z,21
2019-05-12T14:51:16.175Z,20.9
2019-05-12T14:51:54.037Z,20.8
2019-05-12T14:52:28.104Z,20.8
2019-05-12T14:53:04.107Z,20.7
2019-05-12T14:53:40.246Z,20.6
2019-05-12T14:54:16.127Z,20.4
2019-05-12T14:54:54.470Z,20.4
2019-05-12T14:55:28.067Z,20.4
2019-05-12T14:56:04.261Z,20.4
2019-05-12T14:56:53.559Z,20.3
2019-05-12T14:57:16.087Z,20.3
2019-05-12T14:58:04.175Z,20.4
2019-05-12T14:58:40.083Z,20.3
2019-05-12T14:59:16.151Z,20.4
2019-05-12T15:00:04.426Z,20.4
2019-05-12T15:00:40.162Z,20.5
2019-05-12T15:01:16.095Z,20.4
2019-05-12T15:01:59.394Z,20.5
2019-05-12T15:02:29.800Z,20.5
2019-05-12T15:03:13.693Z,20.5
2019-05-12T15:03:47.515Z,20.6
2019-05-12T15:04:30.216Z,20.7
2019-05-12T15:05:10.848Z,20.6
2019-05-12T15:05:54.751Z,20.7
2019-05-12T15:06:29.937Z,20.7
2019-05-12T15:07:10.102Z,20.6
2019-05-12T15:07:51.349Z,20.5
2019-05-12T15:08:31.633Z,20.4
2019-05-12T15:08:54.327Z,20.3
2019-05-12T15:10:06.987Z,20
2019-05-12T15:10:40.046Z,19.8
2019-05-12T15:11:16.149Z,19.7
2019-05-12T15:11:52.126Z,19.6
2019-05-12T15:12:28.117Z,19.6
2019-05-12T15:13:04.053Z,19.6
2019-05-12T15:13:40.135Z,19.5
2019-05-12T15:14:16.108Z,19.5
2019-05-12T15:14:54.614Z,19.4
2019-05-12T15:15:28.053Z,19.4
2019-05-12T15:16:04.140Z,19.3
2019-05-12T15:16:44.686Z,19.3
2019-05-12T15:17:28.175Z,19.1
2019-05-12T15:18:16.410Z,19.3
2019-05-12T15:18:54.356Z,19.3
2019-05-12T15:19:30.120Z,19.4
2019-05-12T15:20:10.686Z,19.5
2019-05-12T15:21:16.080Z,19.5
2019-05-12T15:21:54.012Z,19.6
2019-05-12T15:22:51.111Z,19.8
2019-05-12T15:23:16.120Z,19.8
2019-05-12T15:24:09.035Z,19.9
2019-05-12T15:24:40.102Z,20
2019-05-12T15:25:16.073Z,20
2019-05-12T15:26:09.391Z,20
2019-05-12T15:26:40.152Z,20.1
2019-05-12T15:27:16.126Z,19.9
2019-05-12T15:27:54.545Z,19.8
2019-05-12T15:28:40.089Z,19.6
2019-05-12T15:29:20.271Z,19.3
2019-05-12T15:30:17.950Z,19.1
2019-05-12T15:30:40.152Z,18.8
2019-05-12T15:31:16.130Z,18.7
2019-05-12T15:31:56.948Z,18.6
2019-05-12T15:32:28.260Z,18.5
2019-05-12T15:33:04.876Z,18.3
2019-05-12T15:33:40.177Z,18.3
2019-05-12T15:34:16.075Z,18.3
2019-05-12T15:34:52.041Z,18.2
2019-05-12T15:35:28.153Z,18.2
2019-05-12T15:36:05.021Z,18.3
2019-05-12T15:36:53.720Z,18.4
2019-05-12T15:37:16.050Z,18.5
2019-05-12T15:37:55.264Z,18.6
2019-05-12T15:38:28.120Z,18.7
2019-05-12T15:39:07.101Z,18.7
2019-05-12T15:39:53.826Z,18.7
2019-05-12T15:40:28.064Z,18.7
2019-05-12T15:41:04.645Z,18.6
2019-05-12T15:41:40.114Z,18.7
2019-05-12T15:42:16.207Z,18.6
2019-05-12T15:43:00.348Z,18.8
2019-05-12T15:43:28.122Z,18.9
2019-05-12T15:44:06.938Z,19
2019-05-12T15:44:40.091Z,19.1
2019-05-12T15:45:28.064Z,19.3
2019-05-12T15:46:04.043Z,19.3
2019-05-12T15:46:46.410Z,19.3
2019-05-12T15:47:30.453Z,19.4
2019-05-12T15:48:04.471Z,19.4
2019-05-12T15:48:53.828Z,19.3
2019-05-12T15:49:28.085Z,19.3
2019-05-12T15:50:04.417Z,19.2
2019-05-12T15:50:45.914Z,19.2
2019-05-12T15:51:16.093Z,19
2019-05-12T15:51:58.723Z,18.9
2019-05-12T15:52:35.075Z,18.9
2019-05-12T15:53:04.215Z,18.8
2019-05-12T15:53:40.102Z,18.7
2019-05-12T15:54:16.059Z,18.7
2019-05-12T15:55:05.038Z,18.7
2019-05-12T15:55:40.012Z,18.6
2019-05-12T15:56:25.959Z,18.5
2019-05-12T15:56:55.720Z,18.1
2019-05-12T15:57:29.339Z,17.9
2019-05-12T15:58:06.136Z,17.7
2019-05-12T15:58:40.116Z,17.4
2019-05-12T15:59:17.833Z,17.2
2019-05-12T15:59:54.352Z,17.2
2019-05-12T16:00:28.035Z,17
2019-05-12T16:01:04.852Z,16.7
2019-05-12T16:01:40.092Z,16.7
2019-05-12T16:02:17.454Z,16.7
2019-05-12T16:03:04.077Z,16.6